createdAt,value
2023-05-16T00:00:14.761Z,9.20
2023-05-16T00:03:00.974Z,8.68
2023-05-16T00:05:46.817Z,10.35
2023-05-16T00:08:32.182Z,13.40
2023-05-16T00:11:18.164Z,12.13
2023-05-16T00:14:03.886Z,13.27
2023-05-16T00:16:49.328Z,10.75
2023-05-16T00:19:35.572Z,8.93
2023-05-16T00:22:21.197Z,11.60
2023-05-16T00:25:08.743Z,13.68
2023-05-16T00:27:54.186Z,10.15
2023-05-16T00:30:40.723Z,10.80
2023-05-16T00:33:26.557Z,13.13
2023-05-16T00:36:11.856Z,13.48
2023-05-16T00:38:57.538Z,14.70
2023-05-16T00:41:42.854Z,10.55
2023-05-16T00:44:28.744Z,13.43
2023-05-16T00:47:14.842Z,10.82
2023-05-16T00:50:00.523Z,12.85
2023-05-16T00:52:46.334Z,10.48
2023-05-16T00:55:32.586Z,14.32
2023-05-16T00:58:18.368Z,12.45
2023-05-16T01:01:05.027Z,10.55
2023-05-16T01:03:50.869Z,11.27
2023-05-16T01:06:36.684Z,12.40
2023-05-16T01:09:22.182Z,8.05
2023-05-16T01:12:29.640Z,10.55
2023-05-16T01:15:38.863Z,12.27
2023-05-16T01:18:29.133Z,11.93
2023-05-16T01:21:41.666Z,11.95
2023-05-16T01:24:34.875Z,11.52
2023-05-16T01:30:18.782Z,9.25
2023-05-16T01:33:05.053Z,12.82
2023-05-16T01:36:49.392Z,16.65
2023-05-16T01:39:55.609Z,12.75
2023-05-16T01:42:46.780Z,13.90
2023-05-16T01:45:39.959Z,12.15
2023-05-16T01:48:35.481Z,11.57
2023-05-16T01:51:25.731Z,10.80
2023-05-16T01:54:13.828Z,12.27
2023-05-16T01:57:01.275Z,9.10
2023-05-16T01:59:47.502Z,11.23
2023-05-16T02:02:33.110Z,10.15
2023-05-16T02:05:19.521Z,14.52
2023-05-16T02:08:16.962Z,8.68
2023-05-16T02:11:03.128Z,12.70
2023-05-16T02:13:49.137Z,9.10
2023-05-16T02:16:35.116Z,8.35
2023-05-16T02:19:20.794Z,17.88
2023-05-16T02:22:06.722Z,9.18
2023-05-16T02:24:52.762Z,8.73
2023-05-16T02:27:38.128Z,10.20
2023-05-16T02:30:23.701Z,7.75
2023-05-16T02:33:09.872Z,14.23
2023-05-16T02:35:55.784Z,12.25
2023-05-16T02:38:41.544Z,9.10
2023-05-16T02:41:26.904Z,7.38
2023-05-16T02:44:12.406Z,7.72
2023-05-16T02:46:57.835Z,9.85
2023-05-16T02:49:43.326Z,11.57
2023-05-16T02:52:29.070Z,7.53
2023-05-16T02:58:02.972Z,12.77
2023-05-16T03:00:48.384Z,9.15
2023-05-16T03:03:36.220Z,8.75
2023-05-16T03:06:22.028Z,8.73
2023-05-16T03:09:07.794Z,11.82
2023-05-16T03:11:53.314Z,8.30
2023-05-16T03:14:38.761Z,7.35
2023-05-16T03:17:24.213Z,10.00
2023-05-16T03:20:11.223Z,9.10
2023-05-16T03:22:56.465Z,9.05
2023-05-16T03:25:43.227Z,10.15
2023-05-16T03:28:28.786Z,9.73
2023-05-16T03:31:15.260Z,7.88
2023-05-16T03:34:00.812Z,9.75
2023-05-16T03:36:46.653Z,10.63
2023-05-16T03:39:32.005Z,10.68
2023-05-16T03:42:18.467Z,9.27
2023-05-16T03:45:06.643Z,7.60
2023-05-16T03:47:51.939Z,8.70
2023-05-16T03:50:39.534Z,6.72
2023-05-16T03:53:26.707Z,9.50
2023-05-16T03:56:11.715Z,11.70
2023-05-16T03:58:58.344Z,9.05
2023-05-16T04:01:44.373Z,9.13
2023-05-16T04:04:30.316Z,7.40
2023-05-16T04:07:15.678Z,13.05
2023-05-16T04:10:01.133Z,12.02
2023-05-16T04:12:46.229Z,8.73
2023-05-16T04:15:31.700Z,9.77
2023-05-16T04:18:17.166Z,6.43
2023-05-16T04:21:02.977Z,15.25
2023-05-16T04:23:48.696Z,8.52
2023-05-16T04:26:34.331Z,13.52
2023-05-16T04:29:19.708Z,9.77
2023-05-16T04:32:05.291Z,14.70
2023-05-16T04:34:53.288Z,13.68
2023-05-16T04:37:39.064Z,12.75
2023-05-16T04:40:25.395Z,12.30
2023-05-16T04:43:11.131Z,13.73
2023-05-16T04:45:58.617Z,7.43
2023-05-16T04:48:44.036Z,10.38
2023-05-16T04:51:29.603Z,11.25
2023-05-16T04:54:15.533Z,8.45
2023-05-16T04:57:01.694Z,10.48
2023-05-16T04:59:47.221Z,8.95
2023-05-16T05:02:32.821Z,11.13
2023-05-16T05:05:18.699Z,11.10
2023-05-16T05:08:04.613Z,9.30
2023-05-16T05:10:50.156Z,13.95
2023-05-16T05:13:35.510Z,10.98
2023-05-16T05:16:21.149Z,12.85
2023-05-16T05:19:06.597Z,10.20
2023-05-16T05:21:51.964Z,11.57
2023-05-16T05:24:37.721Z,17.48
2023-05-16T05:27:23.444Z,11.63
2023-05-16T05:30:09.348Z,13.77
2023-05-16T05:32:54.992Z,11.35
2023-05-16T05:35:40.671Z,10.65
2023-05-16T05:38:26.290Z,8.57
2023-05-16T05:41:11.956Z,15.32
2023-05-16T05:43:57.262Z,12.07
2023-05-16T05:46:43.266Z,10.88
2023-05-16T05:49:28.465Z,12.20
2023-05-16T05:52:14.183Z,13.43
2023-05-16T05:55:00.153Z,9.38
2023-05-16T05:57:46.079Z,12.50
2023-05-16T06:00:31.347Z,13.10
2023-05-16T06:03:17.152Z,10.60
2023-05-16T06:06:03.712Z,10.23
2023-05-16T06:08:49.637Z,13.63
2023-05-16T06:11:35.356Z,8.32
2023-05-16T06:14:20.848Z,12.60
2023-05-16T06:17:06.330Z,8.20
2023-05-16T06:19:51.971Z,11.52
2023-05-16T06:22:37.853Z,9.60
2023-05-16T06:25:23.272Z,12.02
2023-05-16T06:28:09.111Z,12.02
2023-05-16T06:30:55.068Z,17.25
2023-05-16T06:33:40.895Z,11.35
2023-05-16T06:36:26.561Z,11.88
2023-05-16T06:39:11.904Z,13.05
2023-05-16T06:41:57.775Z,14.18
2023-05-16T06:44:43.652Z,11.48
2023-05-16T06:47:29.161Z,12.95
2023-05-16T06:50:15.227Z,11.18
2023-05-16T06:53:00.999Z,11.13
2023-05-16T06:55:47.146Z,11.10
2023-05-16T06:58:32.554Z,10.95
2023-05-16T07:01:18.134Z,12.70
2023-05-16T07:04:04.475Z,11.35
2023-05-16T07:06:50.675Z,8.38
2023-05-16T07:09:36.173Z,11.50
2023-05-16T07:12:21.602Z,10.90
2023-05-16T07:15:07.740Z,11.57
2023-05-16T07:17:53.234Z,10.25
2023-05-16T07:20:38.912Z,11.70
2023-05-16T07:23:24.395Z,9.52
2023-05-16T07:26:10.002Z,7.55
2023-05-16T07:28:55.837Z,9.57
2023-05-16T07:31:41.453Z,12.73
2023-05-16T07:34:27.067Z,14.73
2023-05-16T07:37:16.282Z,10.10
2023-05-16T07:40:01.976Z,12.35
2023-05-16T07:42:47.244Z,11.35
2023-05-16T07:45:32.760Z,11.93
2023-05-16T07:48:18.331Z,10.10
2023-05-16T07:51:03.835Z,7.43
2023-05-16T07:53:49.296Z,9.77
2023-05-16T07:56:34.897Z,7.50
2023-05-16T07:59:20.493Z,18.35
2023-05-16T08:02:06.166Z,11.13
2023-05-16T08:04:51.745Z,14.40
2023-05-16T08:07:37.668Z,9.13
2023-05-16T08:10:26.045Z,13.25
2023-05-16T08:13:11.617Z,8.75
2023-05-16T08:15:57.210Z,7.78
2023-05-16T08:18:42.710Z,8.27
2023-05-16T08:21:28.528Z,12.90
2023-05-16T08:24:15.485Z,10.13
2023-05-16T08:27:01.933Z,8.48
2023-05-16T08:29:47.315Z,7.38
2023-05-16T08:32:33.003Z,8.02
2023-05-16T08:35:18.388Z,7.80
2023-05-16T08:38:04.083Z,11.13
2023-05-16T08:40:49.346Z,8.68
2023-05-16T08:43:36.026Z,10.88
2023-05-16T08:46:23.492Z,9.82
2023-05-16T08:49:10.201Z,7.68
2023-05-16T08:51:59.276Z,9.82
2023-05-16T08:54:50.326Z,7.43
2023-05-16T08:57:41.285Z,6.72
2023-05-16T09:00:27.610Z,11.95
2023-05-16T09:03:14.019Z,11.10
2023-05-16T09:06:00.047Z,6.15
2023-05-16T09:08:45.914Z,7.78
2023-05-16T09:11:31.106Z,11.40
2023-05-16T09:14:16.853Z,10.75
2023-05-16T09:17:06.007Z,13.65
2023-05-16T09:19:53.057Z,7.80
2023-05-16T09:22:39.389Z,6.53
2023-05-16T09:25:31.029Z,7.18
2023-05-16T09:28:18.186Z,9.38
2023-05-16T09:31:03.527Z,7.50
2023-05-16T09:33:50.704Z,10.35
2023-05-16T09:36:36.872Z,8.52
2023-05-16T09:39:27.608Z,6.70
2023-05-16T09:42:13.331Z,6.53
2023-05-16T09:44:58.895Z,12.15
2023-05-16T09:47:46.737Z,4.60
2023-05-16T09:50:36.967Z,6.88
2023-05-16T09:53:28.029Z,7.90
2023-05-16T09:56:14.936Z,7.47
2023-05-16T09:59:00.749Z,11.70
2023-05-16T10:01:48.969Z,6.90
2023-05-16T10:04:38.470Z,8.23
2023-05-16T10:07:24.530Z,7.53
2023-05-16T10:10:10.880Z,5.82
2023-05-16T10:13:01.476Z,6.20
2023-05-16T10:15:48.623Z,6.85
2023-05-16T10:18:35.557Z,5.43
2023-05-16T10:21:23.257Z,6.60
2023-05-16T10:24:11.922Z,5.38
2023-05-16T10:26:57.579Z,7.60
2023-05-16T10:29:54.105Z,6.78
2023-05-16T10:32:42.705Z,5.68
2023-05-16T10:35:28.746Z,7.10
2023-05-16T10:38:19.605Z,6.72
2023-05-16T10:41:07.075Z,6.47
2023-05-16T10:43:59.500Z,8.30
2023-05-16T10:46:46.962Z,7.80
2023-05-16T10:49:32.418Z,5.20
2023-05-16T10:52:18.171Z,6.28
2023-05-16T10:55:07.062Z,7.72
2023-05-16T10:57:52.859Z,7.90
2023-05-16T11:00:40.166Z,8.23
2023-05-16T11:03:28.679Z,5.70
2023-05-16T11:06:23.607Z,8.88
2023-05-16T11:09:16.166Z,5.25
2023-05-16T11:12:03.626Z,4.38
2023-05-16T11:14:51.841Z,5.95
2023-05-16T11:17:42.281Z,6.53
2023-05-16T11:20:34.201Z,6.18
2023-05-16T11:23:21.793Z,6.72
2023-05-16T11:26:07.903Z,4.32
2023-05-16T11:28:54.245Z,9.52
2023-05-16T11:31:42.990Z,7.65
2023-05-16T11:34:29.484Z,6.18
2023-05-16T11:37:17.070Z,4.90
2023-05-16T11:40:09.839Z,6.30
2023-05-16T11:43:04.678Z,6.60
2023-05-16T11:45:57.096Z,6.38
2023-05-16T11:48:42.906Z,4.97
2023-05-16T11:51:29.124Z,6.35
2023-05-16T11:54:14.699Z,7.55
2023-05-16T11:57:02.005Z,10.30
2023-05-16T11:59:47.652Z,7.45
2023-05-16T12:02:33.438Z,7.97
2023-05-16T12:05:20.771Z,5.53
2023-05-16T12:08:07.173Z,7.00
2023-05-16T12:10:53.813Z,5.40
2023-05-16T12:13:39.694Z,11.07
2023-05-16T12:16:25.185Z,9.63
2023-05-16T12:19:11.515Z,7.55
2023-05-16T12:21:57.315Z,3.63
2023-05-16T12:24:42.866Z,5.85
2023-05-16T12:27:28.472Z,7.13
2023-05-16T12:30:17.408Z,7.38
2023-05-16T12:33:14.193Z,5.43
2023-05-16T12:36:01.736Z,6.72
2023-05-16T12:38:48.227Z,5.88
2023-05-16T12:41:41.342Z,5.95
2023-05-16T12:44:30.569Z,6.50
2023-05-16T12:47:18.295Z,5.40
2023-05-16T12:50:10.127Z,8.70
2023-05-16T12:52:59.957Z,6.78
2023-05-16T12:55:46.699Z,4.80
2023-05-16T12:58:32.532Z,8.20
2023-05-16T13:01:41.402Z,9.93
2023-05-16T13:04:38.048Z,9.00
2023-05-16T13:07:27.176Z,11.65
2023-05-16T13:10:13.439Z,4.35
2023-05-16T13:13:00.156Z,5.20
2023-05-16T13:15:46.363Z,7.82
2023-05-16T13:18:32.102Z,7.35
2023-05-16T13:21:17.950Z,5.57
2023-05-16T13:24:03.564Z,2.47
2023-05-16T13:26:49.625Z,5.93
2023-05-16T13:29:35.356Z,5.00
2023-05-16T13:32:20.868Z,5.00
2023-05-16T13:35:06.983Z,7.45
2023-05-16T13:37:53.474Z,6.18
2023-05-16T13:40:39.964Z,5.80
2023-05-16T13:43:25.931Z,4.53
2023-05-16T13:46:11.806Z,6.63
2023-05-16T13:48:58.364Z,5.45
2023-05-16T13:51:45.673Z,8.35
2023-05-16T13:54:31.315Z,6.40
2023-05-16T13:57:17.404Z,6.10
2023-05-16T14:02:57.954Z,5.68
2023-05-16T14:05:43.865Z,6.25
2023-05-16T14:08:32.639Z,4.85
2023-05-16T14:11:28.462Z,8.50
2023-05-16T14:14:15.313Z,9.50
2023-05-16T14:17:01.361Z,5.28
2023-05-16T14:19:46.978Z,8.65
2023-05-16T14:22:32.611Z,7.18
2023-05-16T14:25:18.277Z,8.48
2023-05-16T14:28:03.987Z,7.43
2023-05-16T14:30:49.565Z,6.72
2023-05-16T14:33:35.450Z,7.28
2023-05-16T14:36:20.961Z,6.03
2023-05-16T14:39:06.432Z,6.53
2023-05-16T14:41:52.090Z,9.52
2023-05-16T14:44:37.564Z,8.10
2023-05-16T14:47:24.133Z,9.77
2023-05-16T14:50:10.140Z,5.35
2023-05-16T14:52:55.613Z,7.78
2023-05-16T14:55:41.211Z,8.40
2023-05-16T14:58:27.116Z,8.48
2023-05-16T15:01:13.121Z,10.23
2023-05-16T15:03:58.991Z,8.43
2023-05-16T15:06:44.590Z,7.88
2023-05-16T15:09:30.102Z,9.10
2023-05-16T15:12:16.015Z,6.57
2023-05-16T15:15:01.616Z,8.43
2023-05-16T15:17:47.307Z,6.25
2023-05-16T15:20:33.382Z,7.35
2023-05-16T15:23:19.136Z,6.53
2023-05-16T15:26:05.189Z,8.75
2023-05-16T15:28:50.650Z,8.77
2023-05-16T15:31:36.070Z,8.82
2023-05-16T15:34:21.457Z,7.78
2023-05-16T15:37:07.120Z,9.30
2023-05-16T15:39:52.975Z,11.40
2023-05-16T15:42:38.396Z,9.57
2023-05-16T15:45:24.080Z,8.43
2023-05-16T15:48:09.544Z,13.00
2023-05-16T15:50:55.242Z,9.35
2023-05-16T15:53:40.697Z,15.65
2023-05-16T15:56:26.308Z,8.65
2023-05-16T15:59:11.913Z,13.55
2023-05-16T16:01:57.291Z,12.52
2023-05-16T16:04:43.337Z,13.73
2023-05-16T16:07:28.746Z,12.65
2023-05-16T16:10:14.200Z,12.18
2023-05-16T16:13:04.390Z,9.55
2023-05-16T16:15:50.798Z,12.15
2023-05-16T16:18:36.529Z,11.48
2023-05-16T16:21:23.755Z,10.10
2023-05-16T16:24:09.798Z,8.52
2023-05-16T16:26:55.428Z,13.32
2023-05-16T16:29:41.053Z,10.57
2023-05-16T16:32:26.687Z,12.43
2023-05-16T16:35:12.526Z,14.30
2023-05-16T16:38:06.222Z,14.57
2023-05-16T16:40:52.386Z,12.63
2023-05-16T16:43:41.147Z,13.15
2023-05-16T16:46:27.045Z,14.63
2023-05-16T16:49:12.565Z,14.23
2023-05-16T16:51:58.531Z,12.60
2023-05-16T16:54:44.460Z,10.30
2023-05-16T16:57:29.934Z,13.30
2023-05-16T17:00:16.434Z,15.13
2023-05-16T17:03:04.851Z,16.27
2023-05-16T17:05:50.796Z,13.57
2023-05-16T17:08:36.454Z,15.23
2023-05-16T17:11:23.514Z,13.98
2023-05-16T17:14:10.796Z,13.00
2023-05-16T17:16:56.797Z,15.68
2023-05-16T17:19:43.143Z,17.15
2023-05-16T17:22:28.499Z,16.27
2023-05-16T17:25:14.198Z,12.57
2023-05-16T17:27:59.620Z,14.45
2023-05-16T17:30:45.064Z,11.82
2023-05-16T17:33:31.224Z,14.32
2023-05-16T17:36:16.868Z,11.20
2023-05-16T17:39:02.344Z,12.43
2023-05-16T17:41:48.469Z,10.80
2023-05-16T17:44:34.199Z,13.13
2023-05-16T17:47:19.859Z,13.15
2023-05-16T17:50:09.416Z,14.15
2023-05-16T17:52:55.515Z,15.13
2023-05-16T17:55:41.015Z,11.27
2023-05-16T17:58:26.611Z,14.32
2023-05-16T18:01:13.041Z,13.20
2023-05-16T18:03:58.628Z,14.50
2023-05-16T18:06:44.263Z,12.88
2023-05-16T18:09:29.980Z,14.98
2023-05-16T18:12:15.957Z,13.35
2023-05-16T18:15:01.293Z,10.95
2023-05-16T18:17:47.000Z,11.02
2023-05-16T18:20:33.288Z,13.82
2023-05-16T18:23:19.032Z,14.40
2023-05-16T18:26:04.770Z,12.00
2023-05-16T18:28:50.569Z,12.52
2023-05-16T18:31:38.108Z,12.02
2023-05-16T18:34:24.063Z,12.68
2023-05-16T18:37:09.509Z,14.65
2023-05-16T18:39:55.261Z,11.70
2023-05-16T18:42:40.826Z,12.13
2023-05-16T18:45:26.843Z,13.90
2023-05-16T18:48:12.631Z,13.75
2023-05-16T18:50:58.255Z,13.00
2023-05-16T18:53:50.769Z,11.60
2023-05-16T18:56:37.169Z,11.48
2023-05-16T18:59:23.244Z,13.73
2023-05-16T19:02:08.762Z,17.58
2023-05-16T19:04:54.480Z,16.38
2023-05-16T19:07:40.810Z,21.17
2023-05-16T19:10:26.869Z,15.35
2023-05-16T19:13:12.379Z,13.40
2023-05-16T19:15:57.982Z,16.88
2023-05-16T19:18:43.954Z,14.73
2023-05-16T19:21:29.890Z,15.05
2023-05-16T19:24:18.743Z,14.15
2023-05-16T19:27:04.726Z,14.93
2023-05-16T19:29:50.652Z,17.05
2023-05-16T19:32:36.148Z,17.58
2023-05-16T19:35:21.987Z,10.80
2023-05-16T19:38:07.452Z,15.95
2023-05-16T19:40:53.572Z,15.15
2023-05-16T19:43:39.401Z,16.25
2023-05-16T19:46:24.862Z,14.80
2023-05-16T19:49:10.870Z,16.98
2023-05-16T19:51:56.546Z,15.65
2023-05-16T19:54:42.072Z,11.93
2023-05-16T19:57:27.842Z,17.15
2023-05-16T20:00:14.404Z,17.27
2023-05-16T20:03:00.232Z,14.00
2023-05-16T20:05:46.063Z,11.43
2023-05-16T20:08:31.826Z,12.35
2023-05-16T20:11:17.686Z,12.15
2023-05-16T20:14:03.283Z,15.48
2023-05-16T20:16:48.817Z,15.35
2023-05-16T20:19:36.448Z,11.93
2023-05-16T20:22:22.398Z,11.80
2023-05-16T20:25:09.267Z,15.43
2023-05-16T20:27:54.996Z,15.27
2023-05-16T20:30:40.577Z,14.05
2023-05-16T20:33:26.651Z,16.15
2023-05-16T20:36:12.447Z,15.70
2023-05-16T20:38:57.772Z,11.07
2023-05-16T20:41:43.504Z,13.57
2023-05-16T20:44:30.116Z,12.30
2023-05-16T20:47:17.028Z,11.93
2023-05-16T20:50:02.829Z,15.77
2023-05-16T20:52:48.276Z,10.48
2023-05-16T20:55:33.869Z,12.63
2023-05-16T20:58:19.464Z,13.23
2023-05-16T21:01:04.973Z,13.80
2023-05-16T21:03:50.811Z,11.80
2023-05-16T21:06:36.336Z,12.32
2023-05-16T21:09:21.722Z,11.48
2023-05-16T21:12:07.450Z,14.23
2023-05-16T21:14:53.045Z,15.18
2023-05-16T21:17:39.487Z,13.38
2023-05-16T21:20:25.382Z,16.33
2023-05-16T21:23:11.497Z,18.27
2023-05-16T21:25:56.836Z,13.75
2023-05-16T21:28:54.331Z,13.88
2023-05-16T21:31:41.135Z,18.13
2023-05-16T21:34:26.938Z,18.45
2023-05-16T21:37:12.294Z,22.40
2023-05-16T21:39:57.806Z,14.88
2023-05-16T21:42:43.317Z,16.35
2023-05-16T21:45:29.283Z,15.95
2023-05-16T21:48:15.323Z,15.20
2023-05-16T21:51:01.793Z,17.02
2023-05-16T21:53:47.797Z,14.32
2023-05-16T21:56:33.022Z,13.30
2023-05-16T21:59:18.631Z,16.98
2023-05-16T22:02:04.485Z,14.60
2023-05-16T22:04:52.248Z,15.52
2023-05-16T22:07:37.959Z,13.77
2023-05-16T22:10:23.226Z,22.35
2023-05-16T22:13:09.171Z,14.80
2023-05-16T22:16:04.069Z,15.70
2023-05-16T22:18:51.118Z,16.60
2023-05-16T22:21:36.520Z,19.67
2023-05-16T22:24:21.868Z,25.13
2023-05-16T22:27:07.510Z,27.55
2023-05-16T22:29:53.080Z,31.50
2023-05-16T22:32:38.541Z,29.65
2023-05-16T22:35:25.441Z,24.77
2023-05-16T22:38:11.179Z,26.33
2023-05-16T22:40:56.649Z,21.58
2023-05-16T22:43:42.186Z,21.75
2023-05-16T22:46:27.562Z,24.77
2023-05-16T22:49:13.312Z,27.08
2023-05-16T22:51:58.908Z,29.48
2023-05-16T22:54:44.635Z,32.10
2023-05-16T22:57:30.103Z,31.10
2023-05-16T23:00:18.745Z,35.78
2023-05-16T23:03:04.492Z,37.05
2023-05-16T23:05:50.443Z,35.30
2023-05-16T23:08:36.760Z,37.20
2023-05-16T23:11:50.231Z,43.35
2023-05-16T23:14:36.099Z,38.25
2023-05-16T23:17:21.463Z,42.50
2023-05-16T23:20:08.112Z,44.72
2023-05-16T23:22:53.833Z,43.42
2023-05-16T23:25:39.654Z,43.35
2023-05-16T23:28:25.325Z,43.05
2023-05-16T23:31:10.590Z,40.65
2023-05-16T23:33:56.226Z,45.13
2023-05-16T23:36:41.703Z,43.35
2023-05-16T23:39:27.261Z,43.67
2023-05-16T23:42:13.444Z,39.40
2023-05-16T23:44:58.696Z,46.35
2023-05-16T23:47:44.302Z,40.05
2023-05-16T23:50:29.836Z,33.70
2023-05-16T23:53:15.391Z,32.55
2023-05-16T23:56:00.679Z,38.33
2023-05-16T23:58:46.371Z,27.58
